Time;durP1;ratioP1;P1;durP2;ratioP2;P2;SDS_P1;SDS_P2;PMS_P1;PMS_P2;Temp;Humidity;BMP_temperature;BMP_pressure;BME280_temperature;BME280_humidity;BME280_pressure;Samples;Min_cycle;Max_cycle;Signal;HPM_P1;HPM_P2
2022/06/12 00:00:58;;;;;;;6.43;2.40;;;12.40;89.80;;;;;;4164730;28;20560;-68
2022/06/12 00:03:00;;;;;;;2.43;2.23;;;12.50;90.00;;;;;;4164741;28;20526;-68
2022/06/12 00:05:01;;;;;;;5.27;2.87;;;12.40;90.30;;;;;;4164111;28;20297;-68
2022/06/12 00:07:02;;;;;;;4.80;2.93;;;12.40;90.50;;;;;;4163869;28;20648;-68
2022/06/12 00:09:03;;;;;;;4.23;2.80;;;12.40;90.60;;;;;;4164299;28;20221;-68
2022/06/12 00:11:06;;;;;;;5.73;2.83;;;12.40;90.90;;;;;;4163474;28;20181;-68
2022/06/12 00:13:09;;;;;;;3.87;2.50;;;12.40;90.80;;;;;;4164689;28;20298;-68
2022/06/12 00:15:13;;;;;;;2.87;2.57;;;12.30;91.10;;;;;;4164169;28;20192;-69
2022/06/12 00:17:14;;;;;;;5.60;2.80;;;12.30;91.60;;;;;;4163796;28;20184;-68
2022/06/12 00:19:14;;;;;;;6.50;2.70;;;12.30;91.70;;;;;;4162908;28;20189;-69
2022/06/12 00:21:15;;;;;;;4.83;2.67;;;12.30;91.70;;;;;;4163052;28;20212;-68
2022/06/12 00:23:17;;;;;;;5.80;2.73;;;12.30;91.90;;;;;;4163137;28;20504;-69
2022/06/12 00:25:19;;;;;;;3.40;2.77;;;12.30;92.20;;;;;;4162980;28;20207;-69
2022/06/12 00:27:19;;;;;;;4.83;3.73;;;12.30;92.50;;;;;;4162939;28;20195;-69
2022/06/12 00:29:23;;;;;;;4.20;2.53;;;12.20;92.50;;;;;;4163485;28;20213;-69
2022/06/12 00:31:23;;;;;;;5.27;3.00;;;12.10;92.60;;;;;;4163891;28;20728;-69
2022/06/12 00:33:24;;;;;;;4.83;3.20;;;12.10;92.80;;;;;;4163772;28;20215;-69
2022/06/12 00:35:31;;;;;;;3.97;3.23;;;12.10;93.30;;;;;;4162499;28;20283;-69
2022/06/12 00:37:33;;;;;;;3.67;3.33;;;12.10;93.70;;;;;;4163551;28;20181;-69
2022/06/12 00:39:33;;;;;;;4.83;3.10;;;12.20;94.00;;;;;;4163125;28;20208;-69
2022/06/12 00:41:35;;;;;;;4.87;3.17;;;12.20;94.30;;;;;;4163330;28;20671;-69
2022/06/12 00:43:37;;;;;;;8.73;3.20;;;12.20;95.00;;;;;;4163205;28;20235;-69
2022/06/12 00:45:49;;;;;;;4.30;3.10;;;12.20;94.70;;;;;;4165795;28;20654;-69
2022/06/12 00:47:49;;;;;;;3.77;3.10;;;12.20;94.70;;;;;;4166112;28;20203;-69
2022/06/12 00:50:03;;;;;;;5.53;3.17;;;12.20;95.00;;;;;;4166416;28;20262;-69
2022/06/12 00:52:39;;;;;;;4.00;2.97;;;12.20;94.60;;;;;;4166398;28;20557;-69
2022/06/12 00:54:43;;;;;;;4.83;3.00;;;12.20;94.60;;;;;;4160294;28;20220;-70
2022/06/12 00:56:50;;;;;;;2.93;2.60;;;12.10;94.50;;;;;;4165344;28;20656;-69
2022/06/12 00:58:55;;;;;;;5.10;3.10;;;12.10;95.40;;;;;;4165967;28;20185;-69
2022/06/12 01:00:55;;;;;;;3.77;2.90;;;12.10;96.20;;;;;;4165454;28;20601;-69
2022/06/12 01:02:58;;;;;;;6.37;3.47;;;12.10;96.10;;;;;;4165270;28;20193;-69
2022/06/12 01:07:24;;;;;;;6.73;3.53;;;12.00;96.30;;;;;;4165072;28;20188;-69
2022/06/12 01:09:30;;;;;;;4.00;2.93;;;11.90;96.30;;;;;;4165472;28;20286;-68
2022/06/12 01:11:32;;;;;;;4.00;3.30;;;11.90;96.60;;;;;;4165554;28;20269;-69
2022/06/12 01:13:41;;;;;;;6.17;3.70;;;11.90;96.80;;;;;;4165649;28;20177;-68
2022/06/12 01:15:47;;;;;;;4.50;3.37;;;12.00;97.30;;;;;;4164800;28;20635;-68
2022/06/12 01:17:49;;;;;;;5.10;3.10;;;11.90;96.70;;;;;;4164879;28;20657;-69
2022/06/12 01:20:00;;;;;;;6.43;3.10;;;11.90;97.00;;;;;;4165340;28;20177;-69
2022/06/12 01:22:38;;;;;;;6.30;3.27;;;11.80;96.80;;;;;;4165409;28;20287;-68
2022/06/12 01:25:21;;;;;;;6.70;3.20;;;11.80;97.00;;;;;;4165691;28;20203;-67
2022/06/12 01:27:46;;;;;;;6.23;3.80;;;11.80;97.40;;;;;;4165439;28;20180;-68
2022/06/12 01:30:08;;;;;;;4.60;3.87;;;11.80;97.40;;;;;;4181860;28;20215;-69
2022/06/12 01:32:14;;;;;;;6.33;4.40;;;11.80;97.40;;;;;;4181638;28;20271;-69
2022/06/12 01:34:15;;;;;;;4.70;3.70;;;11.80;97.30;;;;;;4182023;28;20200;-70
2022/06/12 01:36:28;;;;;;;7.47;3.60;;;11.70;97.30;;;;;;4181026;28;20177;-70
2022/06/12 01:38:43;;;;;;;4.93;3.63;;;11.60;97.80;;;;;;4181592;28;20257;-70
2022/06/12 01:41:01;;;;;;;4.70;3.43;;;11.60;98.10;;;;;;4181509;28;20180;-70
2022/06/12 01:43:10;;;;;;;4.87;3.70;;;11.60;98.60;;;;;;4182252;28;20195;-70
2022/06/12 01:45:36;;;;;;;5.87;4.07;;;11.60;98.60;;;;;;4181376;28;20207;-70
2022/06/12 01:48:00;;;;;;;6.80;4.77;;;11.60;98.80;;;;;;4181455;28;20183;-70
2022/06/12 01:50:29;;;;;;;5.20;3.90;;;11.50;99.50;;;;;;4181275;28;20208;-70
2022/06/12 01:52:38;;;;;;;6.83;4.17;;;11.50;99.90;;;;;;4181431;28;20920;-69
2022/06/12 01:55:26;;;;;;;6.83;3.77;;;11.50;99.90;;;;;;4180965;28;20200;-70
2022/06/12 01:57:50;;;;;;;6.43;4.37;;;11.60;99.90;;;;;;4178583;28;20231;-70
2022/06/12 01:59:57;;;;;;;5.00;3.90;;;11.60;99.90;;;;;;4163894;28;20203;-70
2022/06/12 02:02:08;;;;;;;4.70;4.00;;;11.60;99.90;;;;;;4164580;28;20250;-70
2022/06/12 02:04:32;;;;;;;6.27;4.73;;;11.60;99.90;;;;;;4164337;28;20597;-70
2022/06/12 02:06:36;;;;;;;8.53;4.37;;;11.50;99.90;;;;;;4163754;28;20210;-70
2022/06/12 02:08:51;;;;;;;6.07;3.90;;;11.50;99.90;;;;;;4164566;28;20282;-70
2022/06/12 02:13:49;;;;;;;4.27;3.87;;;11.50;99.90;;;;;;4164783;28;20205;-70
2022/06/12 02:16:13;;;;;;;5.60;4.20;;;11.40;99.90;;;;;;4163472;28;20291;-70
2022/06/12 02:18:19;;;;;;;6.37;4.27;;;11.40;99.90;;;;;;4179865;28;20187;-70
2022/06/12 02:20:24;;;;;;;6.03;4.97;;;11.30;99.90;;;;;;4164022;28;20192;-70
2022/06/12 02:22:28;;;;;;;7.30;4.57;;;11.40;99.90;;;;;;4164244;28;20183;-69
2022/06/12 02:24:55;;;;;;;7.43;4.77;;;11.40;99.90;;;;;;4164063;28;20204;-70
2022/06/12 02:27:08;;;;;;;6.13;4.97;;;11.50;99.90;;;;;;4163366;28;20185;-71
2022/06/12 02:29:17;;;;;;;9.60;4.80;;;11.50;99.90;;;;;;4163968;28;20239;-70
2022/06/12 02:31:25;;;;;;;7.33;4.43;;;11.50;99.90;;;;;;4163954;28;20179;-70
2022/06/12 02:33:40;;;;;;;5.93;4.20;;;11.50;99.90;;;;;;4173714;28;20198;-70
2022/06/12 02:35:46;;;;;;;9.47;4.43;;;11.50;99.90;;;;;;4178066;28;20299;-70
2022/06/12 02:37:53;;;;;;;6.40;4.70;;;11.50;99.90;;;;;;4180621;28;20231;-70
2022/06/12 02:40:02;;;;;;;5.90;4.40;;;11.40;99.90;;;;;;4180342;28;20222;-70
2022/06/12 02:42:17;;;;;;;7.87;4.77;;;11.40;99.90;;;;;;4180252;28;20179;-70
2022/06/12 02:44:31;;;;;;;5.90;4.47;;;11.40;99.90;;;;;;4178915;28;20208;-70
2022/06/12 02:46:55;;;;;;;5.73;4.10;;;11.30;99.90;;;;;;4179824;28;20190;-70
2022/06/12 02:48:55;;;;;;;5.57;4.03;;;11.30;99.90;;;;;;4180285;28;20246;-71
2022/06/12 02:51:23;;;;;;;5.47;4.40;;;11.20;99.90;;;;;;4180125;28;20260;-71
2022/06/12 02:53:32;;;;;;;7.63;4.73;;;11.20;99.90;;;;;;4180097;28;20241;-71
2022/06/12 02:55:49;;;;;;;6.23;4.27;;;11.20;99.90;;;;;;4179768;28;20278;-69
2022/06/12 02:58:09;;;;;;;7.90;4.47;;;11.20;99.90;;;;;;4180340;28;20196;-70
2022/06/12 03:00:30;;;;;;;8.73;5.23;;;11.10;99.90;;;;;;4180092;28;20183;-72
2022/06/12 03:02:39;;;;;;;6.10;4.60;;;11.20;99.90;;;;;;4179695;28;20279;-70
2022/06/12 03:05:10;;;;;;;6.97;4.50;;;11.20;99.90;;;;;;4179745;28;20203;-70
2022/06/12 03:07:11;;;;;;;6.47;4.60;;;11.20;99.90;;;;;;4179646;28;20262;-70
2022/06/12 03:09:11;;;;;;;5.47;4.83;;;11.20;99.90;;;;;;4179889;28;20624;-71
2022/06/12 03:11:19;;;;;;;5.70;4.57;;;11.30;99.90;;;;;;4179753;28;20187;-71
2022/06/12 03:13:22;;;;;;;6.10;4.00;;;11.20;99.90;;;;;;4179986;28;20282;-70
2022/06/12 03:15:42;;;;;;;6.90;4.67;;;11.10;99.90;;;;;;4179242;28;20199;-70
2022/06/12 03:17:43;;;;;;;5.50;4.53;;;11.10;99.90;;;;;;4179979;28;20195;-71
2022/06/12 03:19:49;;;;;;;6.27;4.47;;;11.10;99.90;;;;;;4178031;28;20535;-71
2022/06/12 03:21:55;;;;;;;8.23;4.70;;;11.10;99.90;;;;;;4179622;28;20208;-71
2022/06/12 03:24:25;;;;;;;5.77;4.63;;;11.10;99.90;;;;;;4179813;28;20187;-71
2022/06/12 03:26:43;;;;;;;7.03;4.33;;;11.00;99.90;;;;;;4174741;28;20208;-70
2022/06/12 03:29:04;;;;;;;5.57;4.70;;;11.00;99.90;;;;;;4179479;28;20207;-71
2022/06/12 03:31:15;;;;;;;6.37;5.10;;;11.00;99.90;;;;;;4178195;28;20203;-70
2022/06/12 03:33:44;;;;;;;5.13;4.60;;;11.10;99.90;;;;;;4179831;28;20270;-71
2022/06/12 03:35:48;;;;;;;9.03;5.60;;;11.10;99.90;;;;;;4178042;28;20208;-71
2022/06/12 03:37:58;;;;;;;6.57;5.03;;;11.10;99.90;;;;;;4178717;28;20215;-71
2022/06/12 03:40:07;;;;;;;6.80;5.07;;;11.10;99.90;;;;;;4178707;28;20190;-71
2022/06/12 03:42:33;;;;;;;6.17;4.83;;;11.20;99.90;;;;;;4177366;28;21324;-71
2022/06/12 03:44:48;;;;;;;7.90;5.43;;;11.20;99.90;;;;;;4178560;28;20196;-70
2022/06/12 03:47:10;;;;;;;5.97;5.07;;;11.20;99.90;;;;;;4178007;28;20242;-71
2022/06/12 03:49:17;;;;;;;4.93;4.43;;;11.20;99.90;;;;;;4178616;28;20215;-71
2022/06/12 03:51:37;;;;;;;5.33;4.83;;;11.20;99.90;;;;;;4178515;28;20199;-70
2022/06/12 03:53:51;;;;;;;7.73;5.00;;;11.30;99.90;;;;;;4178618;28;20241;-71
2022/06/12 03:58:47;;;;;;;6.70;4.83;;;11.20;99.90;;;;;;4159369;28;20254;-70
2022/06/12 04:00:51;;;;;;;5.67;4.90;;;11.20;99.90;;;;;;4168969;28;20666;-71
2022/06/12 04:02:59;;;;;;;11.17;5.80;;;11.30;99.90;;;;;;4177108;28;20318;-71
2022/06/12 04:05:01;;;;;;;6.63;5.30;;;11.30;99.90;;;;;;4178415;28;20877;-71
2022/06/12 04:07:06;;;;;;;6.00;5.27;;;11.30;99.90;;;;;;4178338;28;20718;-71
2022/06/12 04:09:15;;;;;;;5.77;5.10;;;11.30;99.90;;;;;;4178459;28;20207;-71
2022/06/12 04:11:19;;;;;;;10.10;5.40;;;11.40;99.90;;;;;;4178554;28;20186;-70
2022/06/12 04:13:22;;;;;;;6.40;4.53;;;11.40;99.90;;;;;;4178389;28;20179;-71
2022/06/12 04:15:30;;;;;;;5.07;4.57;;;11.50;99.90;;;;;;4177864;28;20750;-71
2022/06/12 04:17:31;;;;;;;5.83;4.40;;;11.50;99.90;;;;;;4178501;28;20207;-70
2022/06/12 04:19:58;;;;;;;7.63;4.73;;;11.50;99.90;;;;;;4179875;28;21317;-71
2022/06/12 04:22:11;;;;;;;4.30;3.90;;;11.50;99.90;;;;;;4181638;28;20199;-71
2022/06/12 04:24:21;;;;;;;5.87;4.23;;;11.50;99.90;;;;;;4181624;28;20270;-72
2022/06/12 04:26:47;;;;;;;6.50;4.90;;;11.50;99.90;;;;;;4181050;28;20175;-72
2022/06/12 04:28:58;;;;;;;5.47;4.90;;;11.50;99.90;;;;;;4181600;28;20211;-72
2022/06/12 04:31:02;;;;;;;8.30;4.63;;;11.60;99.90;;;;;;4181637;28;20198;-71
2022/06/12 04:33:21;;;;;;;5.90;4.37;;;11.60;99.90;;;;;;4181572;28;20794;-71
2022/06/12 04:35:22;;;;;;;6.13;5.03;;;11.70;99.90;;;;;;4181027;28;20574;-72
2022/06/12 04:37:31;;;;;;;7.07;4.90;;;11.70;99.90;;;;;;4181490;28;20190;-71
2022/06/12 04:39:33;;;;;;;6.13;4.77;;;11.80;99.90;;;;;;4181309;28;20187;-70
2022/06/12 04:41:36;;;;;;;5.93;4.87;;;11.80;99.90;;;;;;4181473;28;20196;-71
2022/06/12 04:43:36;;;;;;;7.93;5.00;;;11.90;99.90;;;;;;4181380;28;20172;-72
2022/06/12 04:45:40;;;;;;;5.07;4.57;;;11.90;99.90;;;;;;4180594;28;20627;-72
2022/06/12 04:47:40;;;;;;;5.47;4.50;;;12.00;99.90;;;;;;4181732;28;20192;-70
2022/06/12 04:49:41;;;;;;;7.03;4.67;;;12.00;99.90;;;;;;4181286;28;20231;-70
2022/06/12 04:51:42;;;;;;;5.57;4.90;;;12.10;99.90;;;;;;4181284;28;20176;-70
2022/06/12 04:53:44;;;;;;;6.97;4.40;;;12.10;99.90;;;;;;4181218;28;20259;-71
2022/06/12 04:55:44;;;;;;;6.40;4.90;;;12.20;99.90;;;;;;4180452;28;20210;-71
2022/06/12 04:57:45;;;;;;;6.97;4.67;;;12.20;99.90;;;;;;4181210;28;20630;-71
2022/06/12 04:59:47;;;;;;;4.67;4.27;;;12.20;99.90;;;;;;4181180;28;20195;-70
2022/06/12 05:01:49;;;;;;;5.03;4.50;;;12.20;99.90;;;;;;4180977;28;20204;-71
2022/06/12 05:03:50;;;;;;;5.70;4.00;;;12.20;99.90;;;;;;4181467;28;20184;-71
2022/06/12 05:05:51;;;;;;;8.03;3.90;;;12.20;99.90;;;;;;4180681;28;20192;-71
2022/06/12 05:07:52;;;;;;;5.20;4.70;;;12.20;99.90;;;;;;4181200;28;20187;-71
2022/06/12 05:09:52;;;;;;;6.33;4.20;;;12.30;99.90;;;;;;4180905;28;20306;-71
2022/06/12 05:11:53;;;;;;;4.73;4.23;;;12.40;99.90;;;;;;4181069;28;20180;-71
2022/06/12 05:13:54;;;;;;;7.30;4.40;;;12.50;99.90;;;;;;4181019;28;20173;-71
2022/06/12 05:15:55;;;;;;;4.53;3.83;;;12.60;99.90;;;;;;4180570;28;20180;-71
2022/06/12 05:17:55;;;;;;;8.73;4.27;;;12.60;99.90;;;;;;4181011;28;20188;-71
2022/06/12 05:19:56;;;;;;;4.90;4.20;;;12.60;99.90;;;;;;4180788;28;20187;-71
2022/06/12 05:21:57;;;;;;;255.83;79.87;;;12.70;99.90;;;;;;4180909;28;20180;-70
2022/06/12 05:23:59;;;;;;;48.70;43.40;;;12.70;99.90;;;;;;4180690;28;20180;-71
2022/06/12 05:26:01;;;;;;;34.80;32.37;;;12.80;99.90;;;;;;4178346;28;20301;-71
2022/06/12 05:28:03;;;;;;;31.30;29.07;;;12.80;99.90;;;;;;4180482;28;20195;-71
2022/06/12 05:30:06;;;;;;;29.27;27.27;;;13.00;99.90;;;;;;4180313;28;20219;-71
2022/06/12 05:32:09;;;;;;;25.10;23.40;;;13.00;99.90;;;;;;4179795;28;20218;-71
2022/06/12 05:34:10;;;;;;;21.97;20.17;;;13.10;99.90;;;;;;4180446;28;20179;-71
2022/06/12 05:36:13;;;;;;;23.20;21.37;;;13.10;99.70;;;;;;4179905;28;20184;-70
2022/06/12 05:38:13;;;;;;;24.43;22.93;;;13.20;99.60;;;;;;4180507;28;20196;-71
2022/06/12 05:40:18;;;;;;;21.90;20.33;;;13.30;99.40;;;;;;4180420;28;20199;-71
2022/06/12 05:42:20;;;;;;;22.27;20.93;;;13.40;99.00;;;;;;4180338;28;20191;-71
2022/06/12 05:44:21;;;;;;;21.77;20.17;;;13.40;98.70;;;;;;4179047;28;20306;-72
2022/06/12 05:46:22;;;;;;;21.30;19.97;;;13.50;98.80;;;;;;4179994;28;20820;-71
2022/06/12 05:48:23;;;;;;;18.77;17.67;;;13.50;98.70;;;;;;4180295;28;20677;-72
2022/06/12 05:50:27;;;;;;;20.20;19.03;;;13.60;98.90;;;;;;4180610;28;20214;-71
2022/06/12 05:52:27;;;;;;;22.07;20.73;;;13.70;98.90;;;;;;4180432;28;20188;-72
2022/06/12 05:54:28;;;;;;;21.03;19.87;;;13.70;98.60;;;;;;4180184;28;20263;-72
2022/06/12 05:56:30;;;;;;;22.83;21.40;;;13.90;98.60;;;;;;4179596;28;20857;-72
2022/06/12 05:58:32;;;;;;;20.33;19.10;;;14.00;98.00;;;;;;4180270;28;20260;-72
2022/06/12 06:00:33;;;;;;;19.73;18.63;;;14.20;97.80;;;;;;4178653;28;20186;-72
2022/06/12 06:02:34;;;;;;;17.83;16.87;;;14.20;97.60;;;;;;4171084;28;20181;-72
2022/06/12 06:04:35;;;;;;;20.57;19.30;;;14.30;97.80;;;;;;4171710;28;20572;-72
2022/06/12 06:06:42;;;;;;;19.40;18.07;;;14.40;97.40;;;;;;4170939;28;20177;-72
2022/06/12 06:08:43;;;;;;;20.17;18.90;;;14.50;96.90;;;;;;4171565;28;20280;-71
2022/06/12 06:10:44;;;;;;;20.03;18.97;;;14.60;96.70;;;;;;4168720;28;20606;-71
2022/06/12 06:12:44;;;;;;;15.30;14.30;;;14.70;96.50;;;;;;4163541;28;20679;-71
2022/06/12 06:14:45;;;;;;;15.07;13.90;;;14.80;96.30;;;;;;4163351;28;20201;-77
2022/06/12 06:16:46;;;;;;;18.27;17.13;;;15.00;96.10;;;;;;4162618;28;20179;-71
2022/06/12 06:18:46;;;;;;;15.07;14.13;;;15.20;95.50;;;;;;4168544;28;20230;-72
2022/06/12 06:20:47;;;;;;;16.77;15.70;;;15.40;94.90;;;;;;4173893;28;20196;-71
2022/06/12 06:22:50;;;;;;;13.20;12.37;;;15.60;94.20;;;;;;4173558;28;20191;-71
2022/06/12 06:24:50;;;;;;;12.43;11.73;;;15.90;93.40;;;;;;4171143;28;20223;-71
2022/06/12 06:26:51;;;;;;;9.47;8.80;;;16.00;92.80;;;;;;4170336;28;20184;-71
2022/06/12 06:28:55;;;;;;;7.90;7.50;;;16.20;91.70;;;;;;4165732;28;20337;-71
2022/06/12 06:30:55;;;;;;;9.47;8.70;;;16.50;90.60;;;;;;4163203;28;20173;-71
2022/06/12 06:32:56;;;;;;;8.00;7.30;;;16.50;89.60;;;;;;4163136;28;20247;-71
2022/06/12 06:34:57;;;;;;;7.10;6.60;;;16.60;88.70;;;;;;4161622;28;20185;-71
2022/06/12 06:36:58;;;;;;;6.43;6.03;;;16.70;88.60;;;;;;4162745;28;20307;-71
2022/06/12 06:38:59;;;;;;;6.23;5.83;;;16.90;87.00;;;;;;4163298;28;20187;-72
2022/06/12 06:40:59;;;;;;;6.17;5.73;;;16.90;86.90;;;;;;4162983;28;20181;-72
2022/06/12 06:43:00;;;;;;;6.03;5.57;;;16.90;87.50;;;;;;4162634;28;20185;-72
2022/06/12 06:47:20;;;;;;;4.80;4.50;;;17.10;81.90;;;;;;4163080;28;20686;-71
2022/06/12 06:49:21;;;;;;;3.90;3.57;;;17.20;80.60;;;;;;4162767;28;20201;-71
2022/06/12 06:51:23;;;;;;;3.77;3.57;;;17.30;78.20;;;;;;4162831;28;20185;-71
2022/06/12 06:53:24;;;;;;;3.33;3.03;;;17.40;74.70;;;;;;4162961;28;20803;-70
2022/06/12 06:55:25;;;;;;;3.70;3.50;;;17.50;73.00;;;;;;4162410;28;20258;-71
2022/06/12 06:57:26;;;;;;;3.30;3.07;;;17.70;72.30;;;;;;4162811;28;20173;-71
2022/06/12 06:59:27;;;;;;;3.37;3.17;;;17.80;71.50;;;;;;4162707;28;20615;-71
2022/06/12 07:01:27;;;;;;;4.07;3.77;;;17.90;69.70;;;;;;4161443;28;20272;-71
2022/06/12 07:03:29;;;;;;;3.73;3.53;;;18.10;68.40;;;;;;4162979;28;20615;-71
2022/06/12 07:05:30;;;;;;;3.57;3.30;;;18.20;67.80;;;;;;4162229;28;20193;-71
2022/06/12 07:07:30;;;;;;;3.93;3.50;;;18.40;65.40;;;;;;4162877;28;20246;-71
2022/06/12 07:09:31;;;;;;;3.53;3.33;;;18.50;64.90;;;;;;4162915;28;20561;-71
2022/06/12 07:11:32;;;;;;;3.30;3.10;;;18.70;64.40;;;;;;4179113;28;20225;-70
2022/06/12 07:13:33;;;;;;;3.80;3.60;;;18.70;65.10;;;;;;4179121;28;20242;-72
2022/06/12 07:15:36;;;;;;;4.60;3.53;;;18.90;63.00;;;;;;4178219;28;20200;-72
2022/06/12 07:17:36;;;;;;;7.30;2.97;;;19.00;61.40;;;;;;4179033;28;20255;-71
2022/06/12 07:19:38;;;;;;;3.83;3.00;;;19.20;60.20;;;;;;4179013;28;20180;-72
2022/06/12 07:21:39;;;;;;;3.83;2.87;;;19.30;59.60;;;;;;4178942;28;20322;-71
2022/06/12 07:23:40;;;;;;;3.93;3.63;;;19.50;57.60;;;;;;4179090;28;20598;-71
2022/06/12 07:25:45;;;;;;;3.23;3.03;;;19.60;59.40;;;;;;4178421;28;20287;-71
2022/06/12 07:27:47;;;;;;;3.40;3.10;;;19.70;60.60;;;;;;4179224;28;20176;-71
2022/06/12 07:29:48;;;;;;;4.37;3.23;;;19.70;58.80;;;;;;4178745;28;20204;-71
2022/06/12 07:31:49;;;;;;;3.30;3.10;;;19.80;59.20;;;;;;4178428;28;20253;-72
2022/06/12 07:33:50;;;;;;;3.87;3.30;;;19.90;59.30;;;;;;4178903;28;20187;-72
2022/06/12 07:35:51;;;;;;;3.33;2.83;;;20.00;58.80;;;;;;4178235;28;20192;-72
2022/06/12 07:37:52;;;;;;;3.83;3.53;;;20.10;58.00;;;;;;4178772;28;20182;-71
2022/06/12 07:39:52;;;;;;;4.40;3.17;;;20.40;55.30;;;;;;4178768;28;20221;-72
2022/06/12 07:41:54;;;;;;;3.30;3.10;;;20.60;54.50;;;;;;4178688;28;20666;-71
2022/06/12 07:43:55;;;;;;;4.53;2.83;;;20.80;54.40;;;;;;4178643;28;20195;-71
2022/06/12 07:45:55;;;;;;;2.80;2.50;;;21.10;52.30;;;;;;4178046;28;20553;-71
2022/06/12 07:47:57;;;;;;;2.97;2.77;;;21.40;48.30;;;;;;4178655;28;20188;-72
2022/06/12 07:49:57;;;;;;;4.60;3.93;;;21.50;50.20;;;;;;4178569;28;20649;-72
2022/06/12 07:52:01;;;;;;;3.07;2.87;;;21.50;49.10;;;;;;4177643;28;20169;-71
2022/06/12 07:54:02;;;;;;;3.33;2.80;;;21.50;48.40;;;;;;4163462;28;20648;-71
2022/06/12 07:56:04;;;;;;;2.97;2.77;;;21.60;49.10;;;;;;4161451;28;20185;-72
2022/06/12 07:58:05;;;;;;;4.20;3.00;;;21.80;47.80;;;;;;4162145;28;20184;-72
2022/06/12 08:00:08;;;;;;;4.97;2.73;;;22.00;46.50;;;;;;4162079;28;20177;-71
2022/06/12 08:02:09;;;;;;;4.70;2.07;;;22.10;46.40;;;;;;4162041;28;20196;-69
2022/06/12 08:04:11;;;;;;;4.33;2.73;;;22.20;46.60;;;;;;4162078;28;20562;-69
2022/06/12 08:06:12;;;;;;;4.23;2.97;;;22.30;44.80;;;;;;4161398;28;20192;-69
2022/06/12 08:08:13;;;;;;;4.40;2.63;;;22.40;46.90;;;;;;4162077;28;20264;-71
2022/06/12 08:10:14;;;;;;;3.20;2.40;;;22.40;46.70;;;;;;4160647;28;20204;-71
2022/06/12 08:12:15;;;;;;;2.73;2.43;;;22.50;45.50;;;;;;4158943;28;20188;-69
2022/06/12 08:14:17;;;;;;;3.90;2.93;;;22.60;45.40;;;;;;4188695;28;20586;-71
2022/06/12 08:16:18;;;;;;;3.70;2.83;;;22.80;46.70;;;;;;4183401;28;20184;-70
2022/06/12 08:18:19;;;;;;;4.30;3.90;;;23.00;46.50;;;;;;4188489;28;20233;-70
2022/06/12 08:20:27;;;;;;;9.20;8.70;;;23.10;46.10;;;;;;4183867;28;20203;-69
2022/06/12 08:22:28;;;;;;;2.70;2.50;;;23.00;44.90;;;;;;4189655;28;20190;-69
2022/06/12 08:24:29;;;;;;;2.10;2.00;;;23.00;44.80;;;;;;4182633;28;20211;-69
2022/06/12 08:26:33;;;;;;;2.70;2.50;;;23.20;44.40;;;;;;4189255;28;20183;-68
2022/06/12 08:28:37;;;;;;;3.63;3.33;;;23.20;45.50;;;;;;4182151;28;20242;-70
2022/06/12 08:30:38;;;;;;;2.53;2.13;;;23.30;48.90;;;;;;4191142;28;20209;-72
2022/06/12 08:32:41;;;;;;;3.43;3.13;;;23.30;46.90;;;;;;4181308;28;20180;-69
2022/06/12 08:34:46;;;;;;;6.50;4.93;;;23.50;45.70;;;;;;4191572;28;20200;-70
2022/06/12 08:36:46;;;;;;;4.00;3.53;;;23.50;45.70;;;;;;4179493;28;20176;-71
2022/06/12 08:38:48;;;;;;;3.57;3.37;;;23.40;45.90;;;;;;4192169;28;20699;-69
2022/06/12 08:41:05;;;;;;;3.10;2.80;;;23.30;45.80;;;;;;4179931;28;20213;-69
2022/06/12 08:43:35;;;;;;;2.30;2.20;;;23.30;46.30;;;;;;4162200;28;20549;-69
2022/06/12 08:45:43;;;;;;;4.13;2.93;;;23.50;46.20;;;;;;4187787;28;20204;-68
2022/06/12 08:48:09;;;;;;;2.80;2.60;;;23.60;47.80;;;;;;4183445;28;20233;-69
2022/06/12 08:50:28;;;;;;;3.27;2.63;;;23.70;44.70;;;;;;4185399;28;20875;-70
2022/06/12 08:52:29;;;;;;;5.37;3.60;;;23.50;43.60;;;;;;4189659;28;20187;-70
2022/06/12 08:54:40;;;;;;;5.47;4.83;;;23.20;47.90;;;;;;4182470;28;20208;-69
2022/06/12 08:56:55;;;;;;;3.00;2.80;;;23.20;46.00;;;;;;4190642;28;20658;-70
2022/06/12 08:59:07;;;;;;;3.50;2.67;;;23.10;48.60;;;;;;4178719;28;20238;-69
2022/06/12 09:01:08;;;;;;;3.90;3.57;;;23.30;46.00;;;;;;4162487;28;20702;-70
2022/06/12 09:03:14;;;;;;;2.33;2.23;;;23.30;44.50;;;;;;4193630;28;20670;-70
2022/06/12 09:05:20;;;;;;;3.83;3.53;;;23.40;45.70;;;;;;4179794;28;20299;-71
2022/06/12 09:07:26;;;;;;;2.93;2.50;;;23.60;45.20;;;;;;4194785;28;20190;-70
2022/06/12 09:10:01;;;;;;;3.73;2.90;;;23.40;44.20;;;;;;4183748;28;20207;-71
2022/06/12 09:12:24;;;;;;;2.70;2.50;;;23.40;43.60;;;;;;4188764;28;20655;-70
2022/06/12 09:14:50;;;;;;;2.97;2.77;;;23.80;42.70;;;;;;4191724;28;20242;-69
2022/06/12 09:16:53;;;;;;;3.30;2.53;;;24.20;42.00;;;;;;4181470;28;20181;-69
2022/06/12 09:18:54;;;;;;;3.03;2.73;;;24.20;41.50;;;;;;4195826;28;20187;-70
2022/06/12 09:21:29;;;;;;;9.07;8.50;;;24.10;42.50;;;;;;4181141;28;20279;-69
2022/06/12 09:23:47;;;;;;;6.57;6.17;;;23.80;42.20;;;;;;4180468;28;20184;-73
2022/06/12 09:25:56;;;;;;;3.00;2.60;;;23.70;42.40;;;;;;4185709;28;20626;-70
2022/06/12 09:28:06;;;;;;;2.90;2.60;;;23.70;42.70;;;;;;4189264;28;20256;-68
2022/06/12 09:30:21;;;;;;;2.53;2.20;;;23.90;42.50;;;;;;4188929;28;20214;-69
2022/06/12 09:32:39;;;;;;;2.67;2.20;;;24.20;43.50;;;;;;4185664;28;20175;-68
2022/06/12 09:34:57;;;;;;;2.60;2.40;;;24.20;41.20;;;;;;4193192;28;20194;-68
2022/06/12 09:39:59;;;;;;;2.27;2.07;;;24.80;42.60;;;;;;4174945;28;20284;-70
2022/06/12 09:42:17;;;;;;;2.80;2.10;;;25.10;39.20;;;;;;4188686;28;20212;-70
2022/06/12 09:44:29;;;;;;;3.17;2.17;;;25.10;39.20;;;;;;4190218;28;20203;-67
2022/06/12 09:46:42;;;;;;;2.40;2.20;;;25.70;37.60;;;;;;4183737;28;20191;-70
2022/06/12 09:48:57;;;;;;;16.40;15.43;;;25.80;38.20;;;;;;4193692;28;20202;-70
2022/06/12 09:51:18;;;;;;;4.30;4.00;;;25.50;38.10;;;;;;4180663;28;20182;-68
2022/06/12 09:53:30;;;;;;;3.93;2.87;;;25.20;37.60;;;;;;4170325;28;20183;-69
2022/06/12 09:55:36;;;;;;;2.73;2.53;;;25.20;38.60;;;;;;4191853;28;20238;-69
2022/06/12 09:57:42;;;;;;;2.43;2.23;;;25.30;39.10;;;;;;4184191;28;20176;-69
2022/06/12 09:59:56;;;;;;;3.30;3.10;;;25.40;37.70;;;;;;4190567;28;20190;-68
2022/06/12 10:02:04;;;;;;;2.60;2.40;;;25.00;38.10;;;;;;4186782;28;20665;-68
2022/06/12 10:04:27;;;;;;;2.40;2.10;;;25.00;38.90;;;;;;4187498;28;20188;-67
2022/06/12 10:06:42;;;;;;;2.37;2.10;;;25.40;37.70;;;;;;4190579;28;20179;-68
2022/06/12 10:08:50;;;;;;;3.47;3.17;;;25.70;39.40;;;;;;4182487;28;20192;-68
2022/06/12 10:11:40;;;;;;;9.37;4.23;;;26.00;37.50;;;;;;4194407;28;20186;-67
2022/06/12 10:13:59;;;;;;;4.87;4.47;;;26.40;41.60;;;;;;4174345;28;20187;-68
2022/06/12 10:16:06;;;;;;;16.20;15.20;;;26.50;36.80;;;;;;4187336;28;20173;-68
2022/06/12 10:18:14;;;;;;;3.67;2.10;;;26.20;34.70;;;;;;4187739;28;20203;-72
2022/06/12 10:20:29;;;;;;;2.27;2.07;;;26.40;35.20;;;;;;4186244;28;20823;-69
2022/06/12 10:22:34;;;;;;;3.20;3.00;;;26.80;35.90;;;;;;4191348;28;20317;-69
2022/06/12 10:24:35;;;;;;;11.80;11.07;;;27.10;32.40;;;;;;4183666;28;20204;-68
2022/06/12 10:26:35;;;;;;;3.80;3.50;;;27.80;31.30;;;;;;4191605;28;20176;-67
2022/06/12 10:28:37;;;;;;;3.07;2.73;;;27.80;32.40;;;;;;4182900;28;20217;-67
2022/06/12 10:30:44;;;;;;;2.83;2.47;;;27.40;33.50;;;;;;4191744;28;20207;-67
2022/06/12 10:32:54;;;;;;;2.00;1.90;;;27.60;32.50;;;;;;4182032;28;20188;-68
2022/06/12 10:35:27;;;;;;;2.27;2.07;;;27.00;32.90;;;;;;4194853;28;20200;-68
2022/06/12 10:37:28;;;;;;;2.23;2.03;;;27.20;33.20;;;;;;4178890;28;20180;-69
2022/06/12 10:39:29;;;;;;;9.43;8.87;;;27.40;35.60;;;;;;4192100;28;20199;-69
2022/06/12 10:41:30;;;;;;;5.13;4.83;;;27.80;32.60;;;;;;4182874;28;20552;-69
2022/06/12 10:43:38;;;;;;;2.30;2.10;;;27.90;31.90;;;;;;4191603;28;20184;-69
2022/06/12 10:45:40;;;;;;;6.03;2.20;;;28.00;31.70;;;;;;4184890;28;20201;-70
2022/06/12 10:47:45;;;;;;;2.80;2.60;;;28.00;32.30;;;;;;4190389;28;20187;-69
2022/06/12 10:49:48;;;;;;;3.23;2.43;;;28.10;32.40;;;;;;4184773;28;20204;-68
2022/06/12 10:51:51;;;;;;;3.80;2.40;;;27.90;32.10;;;;;;4189348;28;20266;-70
2022/06/12 10:54:12;;;;;;;1.93;1.70;;;28.30;31.60;;;;;;4185810;28;20199;-67
2022/06/12 10:56:29;;;;;;;2.20;2.00;;;28.40;31.10;;;;;;4185294;28;20193;-70
2022/06/12 10:58:36;;;;;;;2.00;1.90;;;28.50;31.90;;;;;;4191017;28;21004;-68
2022/06/12 11:00:42;;;;;;;2.20;2.00;;;28.70;30.90;;;;;;4182608;28;20230;-69
2022/06/12 11:03:06;;;;;;;2.70;2.00;;;29.40;30.40;;;;;;4192520;28;20176;-69
2022/06/12 11:05:45;;;;;;;4.17;1.80;;;28.80;30.00;;;;;;4163137;28;20211;-68
2022/06/12 11:08:11;;;;;;;2.30;2.10;;;28.50;30.50;;;;;;4188477;28;20593;-68
2022/06/12 11:10:45;;;;;;;3.00;2.80;;;28.60;30.70;;;;;;4187957;28;20572;-68
2022/06/12 11:13:10;;;;;;;2.90;2.70;;;28.70;30.40;;;;;;4181111;28;20229;-68
2022/06/12 11:15:28;;;;;;;2.00;1.90;;;28.60;31.50;;;;;;4164129;28;20227;-69
2022/06/12 11:17:44;;;;;;;3.23;3.00;;;28.60;30.50;;;;;;4191217;28;20168;-68